KPIE/PIE METAR and TAF weather

Enter ICAO airport designator
Station Type Date Time Source
KPIE METAR 2020/01/20 15:53 UTC NOAA

KPIE 201553Z 35006KT 10SM CLR 12/01 A3024 RMK AO2 SLP239 T01220006


Station Type Date Time Source
KPIE Decoded METAR 2020/01/20 15:53 UTC NOAA

ST PETERSBURG/CLEARWATER, FL, United States (KPIE) 27-55N 82-41W 4M
Jan 20, 2020 - 10:53 AM EST / 2020.01.20 1553 UTC
Wind: from the N (350 degrees) at 7 MPH (6 KT):0
Visibility: 10 mile(s):0
Sky conditions: clear
Temperature: 54.0 F (12.2 C)
Dew Point: 33.1 F (0.6 C)
Relative Humidity: 44%
Pressure (altimeter): 30.24 in. Hg (1024 hPa)
ob: KPIE 201553Z 35006KT 10SM CLR 12/01 A3024 RMK AO2 SLP239 T01220006
cycle: 16

Station Type Date Time Source
KPIE TAF 2020/01/20 12:24 UTC NOAA

TAF KPIE 201120Z 2012/2112 36012KT P6SM SCT250
FM201500 34010KT P6SM FEW250
FM210200 36012KT P6SM SKC

Example: see airport list